Time;durP1;ratioP1;P1;durP2;ratioP2;P2;SDS_P1;SDS_P2;PMS_P1;PMS_P2;Temp;Humidity;BMP_temperature;BMP_pressure;BME280_temperature;BME280_humidity;BME280_pressure;Samples;Min_cycle;Max_cycle;Signal;HPM_P1;HPM_P2
2022/06/21 00:02:18;;;;;;;;;;;10.50;99.90;;;;;;5021251;28;20496;-77
2022/06/21 00:04:44;;;;;;;;;;;10.50;99.90;;;;;;5023607;28;19967;-77
2022/06/21 00:07:26;;;;;;;;;;;10.60;99.90;;;;;;5010571;28;20507;-77
2022/06/21 00:09:52;;;;;;;;;;;10.60;99.90;;;;;;5023455;28;19940;-77
2022/06/21 00:12:18;;;;;;;;;;;10.60;99.90;;;;;;4993193;28;19978;-77
2022/06/21 00:14:44;;;;;;;;;;;10.50;99.90;;;;;;5006975;28;19933;-77
2022/06/21 00:17:14;;;;;;;;;;;10.60;99.90;;;;;;5023370;28;19929;-77
2022/06/21 00:19:41;;;;;;;;;;;10.50;99.90;;;;;;5023627;28;19982;-77
2022/06/21 00:22:11;;;;;;;;;;;10.40;99.90;;;;;;5005846;28;19936;-77
2022/06/21 00:24:37;;;;;;;;;;;10.30;99.90;;;;;;5005466;28;20345;-77
2022/06/21 00:27:03;;;;;;;;;;;10.30;99.90;;;;;;4978905;28;19932;-77
2022/06/21 00:29:28;;;;;;;;;;;10.20;99.90;;;;;;5006148;28;19959;-77
2022/06/21 00:31:54;;;;;;;;;;;10.30;99.90;;;;;;5024176;28;19939;-77
2022/06/21 00:34:21;;;;;;;;;;;10.20;99.90;;;;;;5024172;28;20410;-77
2022/06/21 00:36:48;;;;;;;;;;;10.20;99.90;;;;;;5007496;28;19928;-77
2022/06/21 00:39:14;;;;;;;;;;;10.00;99.90;;;;;;5005229;28;19976;-77
2022/06/21 00:41:52;;;;;;;;;;;10.10;99.90;;;;;;5021185;28;19936;-77
2022/06/21 00:44:39;;;;;;;;;;;10.10;99.90;;;;;;5021873;28;19960;-77
2022/06/21 00:47:15;;;;;;;;;;;10.10;99.90;;;;;;5003667;28;20596;-77
2022/06/21 00:49:52;;;;;;;;;;;10.00;99.90;;;;;;5022253;28;19933;-77
2022/06/21 00:52:21;;;;;;;;;;;9.90;99.90;;;;;;5020799;28;20425;-77
2022/06/21 00:55:03;;;;;;;;;;;9.90;99.90;;;;;;5021574;28;19929;-77
2022/06/21 00:57:42;;;;;;;;;;;10.00;99.90;;;;;;5022382;28;19929;-77
2022/06/21 01:00:22;;;;;;;;;;;9.90;99.90;;;;;;5019776;28;19976;-77
2022/06/21 01:02:48;;;;;;;;;;;9.90;99.90;;;;;;5004870;28;19929;-77
2022/06/21 01:05:14;;;;;;;;;;;10.00;99.90;;;;;;5002913;28;19929;-77
2022/06/21 01:07:39;;;;;;;;;;;9.90;99.90;;;;;;5003758;28;19928;-77
2022/06/21 01:10:07;;;;;;;;;;;9.90;99.90;;;;;;5004770;28;19928;-77
2022/06/21 01:12:43;;;;;;;;;;;9.80;99.90;;;;;;5019631;28;19941;-77
2022/06/21 01:15:12;;;;;;;;;;;9.80;99.90;;;;;;5020139;28;20540;-77
2022/06/21 01:17:38;;;;;;;;;;;9.90;99.90;;;;;;5020853;28;19935;-77
2022/06/21 01:20:06;;;;;;;;;;;9.90;99.90;;;;;;5021496;28;20701;-77
2022/06/21 01:23:02;;;;;;;;;;;9.80;99.90;;;;;;5003795;28;19939;-77
2022/06/21 01:25:38;;;;;;;;;;;9.80;99.90;;;;;;4935673;28;19970;-77
2022/06/21 01:28:04;;;;;;;;;;;9.80;99.90;;;;;;4988557;28;19928;-76
2022/06/21 01:30:30;;;;;;;;;;;9.80;99.90;;;;;;5021292;28;19929;-77
2022/06/21 01:32:57;;;;;;;;;;;9.70;99.90;;;;;;5022425;28;19929;-77
2022/06/21 01:35:28;;;;;;;;;;;9.80;99.90;;;;;;5004689;28;20601;-77
2022/06/21 01:37:54;;;;;;;;;;;9.80;99.90;;;;;;5021812;28;19932;-77
2022/06/21 01:40:25;;;;;;;;;;;9.80;99.90;;;;;;5026580;28;20006;-77
2022/06/21 01:42:54;;;;;;;;;;;9.70;99.90;;;;;;5026535;28;19932;-77
2022/06/21 01:45:34;;;;;;;;;;;9.60;99.90;;;;;;5025632;28;19928;-77
2022/06/21 01:48:19;;;;;;;;;;;9.70;99.90;;;;;;5024947;28;20275;-77
2022/06/21 01:50:45;;;;;;;;;;;9.80;99.90;;;;;;5023081;28;19928;-77
2022/06/21 01:53:12;;;;;;;;;;;10.00;99.90;;;;;;5024006;28;19967;-77
2022/06/21 01:55:45;;;;;;;;;;;9.90;99.90;;;;;;5026001;28;19977;-77
2022/06/21 01:58:23;;;;;;;;;;;9.90;99.90;;;;;;5007432;28;19925;-77
2022/06/21 02:00:52;;;;;;;;;;;10.00;99.90;;;;;;5024008;28;20368;-77
2022/06/21 02:03:19;;;;;;;;;;;9.90;99.90;;;;;;5024224;28;19939;-77
2022/06/21 02:05:50;;;;;;;;;;;10.00;99.90;;;;;;5025605;28;20455;-77
2022/06/21 02:08:18;;;;;;;;;;;10.10;99.90;;;;;;5007527;28;19991;-77
2022/06/21 02:10:46;;;;;;;;;;;10.00;99.90;;;;;;5007136;28;19956;-77
2022/06/21 02:13:27;;;;;;;;;;;10.00;99.90;;;;;;5024350;28;20402;-77
2022/06/21 02:15:56;;;;;;;;;;;10.00;99.90;;;;;;5026055;28;19929;-77
2022/06/21 02:18:23;;;;;;;;;;;9.90;99.90;;;;;;5023544;28;19933;-77
2022/06/21 02:20:58;;;;;;;;;;;9.70;99.90;;;;;;5024455;28;20379;-77
2022/06/21 02:23:24;;;;;;;;;;;9.70;99.90;;;;;;5006925;28;20426;-76
2022/06/21 02:25:53;;;;;;;;;;;9.60;99.90;;;;;;5006378;28;19940;-77
2022/06/21 02:28:20;;;;;;;;;;;9.60;99.90;;;;;;4989702;28;20078;-76
2022/06/21 02:30:47;;;;;;;;;;;9.50;99.90;;;;;;5023987;28;19929;-77
2022/06/21 02:33:18;;;;;;;;;;;9.50;99.90;;;;;;5005878;28;20027;-77
2022/06/21 02:35:50;;;;;;;;;;;9.50;99.90;;;;;;5023982;28;19982;-77
2022/06/21 02:38:34;;;;;;;;;;;9.50;99.90;;;;;;5025939;28;19928;-77
2022/06/21 02:41:04;;;;;;;;;;;9.50;99.90;;;;;;5023669;28;20647;-76
2022/06/21 02:43:33;;;;;;;;;;;9.40;99.90;;;;;;5007674;28;19929;-77
2022/06/21 02:46:08;;;;;;;;;;;9.40;99.90;;;;;;5007460;28;20615;-76
2022/06/21 02:48:46;;;;;;;;;;;9.20;99.90;;;;;;5008587;28;19936;-77
2022/06/21 02:51:16;;;;;;;;;;;9.10;99.90;;;;;;5012081;28;19937;-77
2022/06/21 02:54:03;;;;;;;;;;;9.10;99.90;;;;;;5022715;28;19929;-77
2022/06/21 02:56:36;;;;;;;;;;;9.10;99.90;;;;;;5024126;28;20368;-76
2022/06/21 02:59:02;;;;;;;;;;;9.20;99.90;;;;;;5024047;28;19929;-77
2022/06/21 03:01:29;;;;;;;;;;;9.10;99.90;;;;;;5027263;28;19929;-76
2022/06/21 03:03:56;;;;;;;;;;;9.10;99.90;;;;;;5008665;28;19929;-77
2022/06/21 03:06:22;;;;;;;;;;;9.00;99.90;;;;;;5021921;28;19929;-77
2022/06/21 03:08:48;;;;;;;;;;;8.90;99.90;;;;;;5024151;28;19932;-76
2022/06/21 03:11:14;;;;;;;;;;;9.00;99.90;;;;;;4994404;28;19971;-76
2022/06/21 03:13:39;;;;;;;;;;;8.90;99.90;;;;;;5017634;28;19924;-77
2022/06/21 03:16:10;;;;;;;;;;;9.00;99.90;;;;;;5015263;28;19928;-77
2022/06/21 03:18:42;;;;;;;;;;;9.00;99.90;;;;;;5008038;28;20374;-77
2022/06/21 03:21:10;;;;;;;;;;;9.00;99.90;;;;;;5026688;28;19928;-77
2022/06/21 03:23:36;;;;;;;;;;;8.90;99.90;;;;;;5012219;28;19936;-78
2022/06/21 03:26:03;;;;;;;;;;;8.80;99.90;;;;;;5023599;28;19951;-78
2022/06/21 03:28:31;;;;;;;;;;;8.90;99.90;;;;;;4993982;28;19992;-77
2022/06/21 03:31:05;;;;;;;;;;;8.90;99.90;;;;;;5007535;28;19925;-77
2022/06/21 03:33:32;;;;;;;;;;;9.00;99.90;;;;;;5022105;28;20708;-77
2022/06/21 03:35:58;;;;;;;;;;;9.10;99.90;;;;;;5000614;28;19929;-77
2022/06/21 03:38:24;;;;;;;;;;;9.10;99.90;;;;;;4981905;28;20385;-77
2022/06/21 03:43:40;;;;;;;;;;;9.10;99.90;;;;;;5024574;28;19936;-77
2022/06/21 03:46:08;;;;;;;;;;;9.10;99.90;;;;;;5007509;28;19932;-77
2022/06/21 03:48:36;;;;;;;;;;;9.20;99.90;;;;;;4999642;28;20051;-77
2022/06/21 03:51:41;;;;;;;;;;;9.20;99.90;;;;;;5007818;28;20618;-77
2022/06/21 03:54:14;;;;;;;;;;;9.10;99.90;;;;;;4993043;28;19929;-78
2022/06/21 03:56:49;;;;;;;;;;;9.20;99.90;;;;;;4992511;28;19926;-77
2022/06/21 03:59:21;;;;;;;;;;;9.10;99.90;;;;;;5008186;28;19979;-78
2022/06/21 04:02:06;;;;;;;;;;;9.20;99.90;;;;;;4996178;28;19928;-78
2022/06/21 04:04:50;;;;;;;;;;;9.20;99.90;;;;;;5025629;28;19936;-77
2022/06/21 04:07:25;;;;;;;;;;;9.30;99.90;;;;;;5006544;28;20330;-78
2022/06/21 04:09:55;;;;;;;;;;;9.20;99.90;;;;;;5025188;28;19957;-78
2022/06/21 04:12:23;;;;;;;;;;;9.30;99.90;;;;;;5005683;28;19929;-78
2022/06/21 04:14:49;;;;;;;;;;;9.30;99.90;;;;;;5009896;28;20378;-77
2022/06/21 04:17:29;;;;;;;;;;;9.40;99.90;;;;;;5024128;28;19928;-78
2022/06/21 04:19:55;;;;;;;;;;;9.40;99.90;;;;;;5002978;28;19929;-78
2022/06/21 04:22:42;;;;;;;;;;;9.50;99.90;;;;;;5023594;28;19929;-78
2022/06/21 04:25:13;;;;;;;;;;;9.50;99.90;;;;;;5013646;28;20215;-78
2022/06/21 04:28:02;;;;;;;;;;;9.60;99.90;;;;;;5003720;28;19928;-78
2022/06/21 04:30:32;;;;;;;;;;;9.60;99.90;;;;;;5012944;28;20854;-78
2022/06/21 04:33:12;;;;;;;;;;;9.70;99.90;;;;;;5021388;28;19990;-78
2022/06/21 04:35:41;;;;;;;;;;;9.80;99.90;;;;;;4999391;28;20274;-78
2022/06/21 04:38:07;;;;;;;;;;;9.80;99.90;;;;;;5002391;28;19940;-79
2022/06/21 04:40:39;;;;;;;;;;;10.00;99.90;;;;;;5005641;28;19929;-79
2022/06/21 04:43:16;;;;;;;;;;;10.20;99.90;;;;;;5005381;28;20018;-78
2022/06/21 04:45:47;;;;;;;;;;;10.60;99.90;;;;;;5012804;28;20341;-78
2022/06/21 04:48:12;;;;;;;;;;;11.00;99.90;;;;;;5013132;28;21588;-79
2022/06/21 04:50:41;;;;;;;;;;;11.20;99.90;;;;;;5021595;28;19929;-78
2022/06/21 04:53:25;;;;;;;;;;;11.40;99.90;;;;;;5018435;28;20453;-78
2022/06/21 04:55:54;;;;;;;;;;;12.00;99.90;;;;;;5003554;28;19929;-78
2022/06/21 04:58:20;;;;;;;;;;;13.30;99.90;;;;;;5023099;28;19936;-78
2022/06/21 05:00:46;;;;;;;;;;;16.00;99.90;;;;;;5020477;28;20617;-77
2022/06/21 05:03:40;;;;;;;;;;;16.10;99.90;;;;;;5019409;28;20624;-78
2022/06/21 05:06:08;;;;;;;;;;;17.60;99.90;;;;;;5003301;28;19929;-79
2022/06/21 05:08:34;;;;;;;;;;;19.00;99.90;;;;;;5024531;28;20409;-78
2022/06/21 05:11:01;;;;;;;;;;;17.40;99.90;;;;;;5023408;28;19936;-78
2022/06/21 05:13:38;;;;;;;;;;;17.20;99.90;;;;;;5025842;28;19936;-78
2022/06/21 05:16:09;;;;;;;;;;;17.10;99.90;;;;;;5005832;28;19979;-79
2022/06/21 05:18:35;;;;;;;;;;;18.50;99.90;;;;;;5006688;28;19935;-77
2022/06/21 05:21:03;;;;;;;;;;;18.90;99.90;;;;;;5006233;28;19928;-78
2022/06/21 05:23:29;;;;;;;;;;;17.60;99.90;;;;;;5004558;28;20044;-78
2022/06/21 05:25:57;;;;;;;;;;;17.10;99.90;;;;;;5016961;28;19951;-78
2022/06/21 05:28:32;;;;;;;;;;;16.50;99.90;;;;;;5006910;28;19932;-77
2022/06/21 05:31:03;;;;;;;;;;;15.90;99.90;;;;;;5023475;28;20390;-78
2022/06/21 05:33:33;;;;;;;;;;;15.80;99.90;;;;;;5022046;28;19940;-77
2022/06/21 05:36:00;;;;;;;;;;;15.70;99.90;;;;;;5020319;28;20022;-77
2022/06/21 05:38:30;;;;;;;;;;;15.50;99.90;;;;;;5022816;28;20370;-77
2022/06/21 05:40:56;;;;;;;;;;;15.20;99.90;;;;;;5023048;28;19929;-77
2022/06/21 05:43:29;;;;;;;;;;;15.10;99.90;;;;;;5004313;28;19952;-77
2022/06/21 05:45:59;;;;;;;;;;;15.20;99.90;;;;;;5017629;28;19929;-78
2022/06/21 05:48:26;;;;;;;;;;;15.20;99.90;;;;;;4986785;28;19963;-78
2022/06/21 05:50:52;;;;;;;;;;;15.30;99.90;;;;;;4978572;28;19929;-77
2022/06/21 05:53:22;;;;;;;;;;;15.30;99.90;;;;;;5006847;28;20333;-77
2022/06/21 05:55:48;;;;;;;;;;;15.30;99.90;;;;;;5011165;28;20358;-78
2022/06/21 05:58:17;;;;;;;;;;;15.40;99.90;;;;;;4986421;28;20039;-77
2022/06/21 06:00:51;;;;;;;;;;;15.40;99.90;;;;;;5007508;28;19936;-78
2022/06/21 06:03:22;;;;;;;;;;;15.60;99.90;;;;;;5003398;28;20188;-77
2022/06/21 06:05:48;;;;;;;;;;;15.90;99.90;;;;;;5006028;28;19929;-78
2022/06/21 06:08:16;;;;;;;;;;;16.30;99.90;;;;;;5000330;28;20015;-78
2022/06/21 06:10:43;;;;;;;;;;;16.50;99.90;;;;;;5022562;28;20368;-78
2022/06/21 06:13:12;;;;;;;;;;;16.70;99.90;;;;;;4982264;28;20665;-78
2022/06/21 06:15:41;;;;;;;;;;;16.90;99.90;;;;;;5016154;28;19936;-77
2022/06/21 06:18:06;;;;;;;;;;;17.40;99.90;;;;;;4996835;28;19940;-78
2022/06/21 06:20:38;;;;;;;;;;;17.50;99.90;;;;;;5000038;28;19928;-77
2022/06/21 06:23:13;;;;;;;;;;;17.90;99.90;;;;;;5020081;28;19957;-77
2022/06/21 06:25:57;;;;;;;;;;;18.10;99.90;;;;;;5024569;28;19929;-78
2022/06/21 06:28:48;;;;;;;;;;;18.40;99.90;;;;;;5009781;28;19977;-77
2022/06/21 06:31:23;;;;;;;;;;;18.40;99.90;;;;;;5026089;28;19925;-78
2022/06/21 06:33:55;;;;;;;;;;;19.30;99.90;;;;;;5023237;28;20790;-78
2022/06/21 06:36:47;;;;;;;;;;;18.90;99.90;;;;;;5016831;28;19929;-78
2022/06/21 06:39:33;;;;;;;;;;;18.80;99.90;;;;;;4997941;28;19994;-78
2022/06/21 06:42:05;;;;;;;;;;;19.40;99.90;;;;;;5018963;28;20448;-78
2022/06/21 06:44:32;;;;;;;;;;;19.60;99.90;;;;;;4998345;28;19932;-78
2022/06/21 06:46:59;;;;;;;;;;;20.30;99.90;;;;;;5002417;28;19975;-78
2022/06/21 06:49:28;;;;;;;;;;;20.50;99.90;;;;;;4990513;28;19936;-78
2022/06/21 06:51:58;;;;;;;;;;;19.50;99.90;;;;;;5004266;28;19941;-78
2022/06/21 06:54:34;;;;;;;;;;;19.50;99.90;;;;;;5003670;28;20280;-77
2022/06/21 06:57:08;;;;;;;;;;;19.10;99.90;;;;;;4997577;28;19933;-78
2022/06/21 06:59:35;;;;;;;;;;;19.40;99.90;;;;;;5004223;28;19968;-78
2022/06/21 07:02:03;;;;;;;;;;;19.00;99.90;;;;;;4997645;28;19936;-77
2022/06/21 07:04:36;;;;;;;;;;;18.80;99.90;;;;;;4996372;28;19925;-77
2022/06/21 07:07:06;;;;;;;;;;;18.60;99.90;;;;;;4970464;28;20676;-77
2022/06/21 07:09:41;;;;;;;;;;;18.40;99.90;;;;;;4972514;28;20039;-78
2022/06/21 07:12:08;;;;;;;;;;;18.30;99.90;;;;;;4986387;28;19932;-78
2022/06/21 07:14:37;;;;;;;;;;;18.10;99.90;;;;;;5003336;28;19935;-78
2022/06/21 07:17:03;;;;;;;;;;;18.10;99.90;;;;;;4998044;28;19929;-77
2022/06/21 07:19:28;;;;;;;;;;;17.90;99.90;;;;;;4979902;28;20378;-78
2022/06/21 07:21:54;;;;;;;;;;;17.90;99.90;;;;;;4999925;28;19929;-78
2022/06/21 07:24:20;;;;;;;;;;;17.80;99.90;;;;;;4969735;28;20489;-77
2022/06/21 07:26:49;;;;;;;;;;;17.50;99.90;;;;;;4986395;28;19936;-78
2022/06/21 07:29:35;;;;;;;;;;;17.50;99.90;;;;;;4979416;28;19929;-79
2022/06/21 07:32:12;;;;;;;;;;;17.30;99.90;;;;;;5002212;28;20429;-77
2022/06/21 07:34:47;;;;;;;;;;;17.20;99.90;;;;;;4985631;28;21786;-76
2022/06/21 07:37:13;;;;;;;;;;;17.20;99.90;;;;;;4995389;28;20475;-77
2022/06/21 07:39:47;;;;;;;;;;;17.50;99.90;;;;;;5001559;28;20008;-77
2022/06/21 07:42:22;;;;;;;;;;;17.50;99.90;;;;;;4981927;28;19929;-78
2022/06/21 07:44:49;;;;;;;;;;;18.40;99.90;;;;;;5015967;28;19987;-77
2022/06/21 07:47:20;;;;;;;;;;;19.00;99.90;;;;;;4998858;28;19932;-78
2022/06/21 07:49:53;;;;;;;;;;;19.20;99.90;;;;;;4997160;28;19980;-78
2022/06/21 07:52:25;;;;;;;;;;;19.50;99.90;;;;;;5015038;28;19935;-78
2022/06/21 07:54:54;;;;;;;;;;;20.00;99.90;;;;;;5025520;28;20018;-79
2022/06/21 07:57:21;;;;;;;;;;;20.10;99.90;;;;;;5027201;28;20614;-77
2022/06/21 07:59:50;;;;;;;;;;;20.60;99.90;;;;;;5010989;28;19933;-79
2022/06/21 08:07:52;;;;;;;;;;;20.80;99.90;;;;;;5022049;28;19935;-79
2022/06/21 08:10:21;;;;;;;;;;;21.10;99.90;;;;;;5014929;28;20390;-78
2022/06/21 08:12:47;;;;;;;;;;;20.30;99.90;;;;;;5008024;28;19928;-79
2022/06/21 08:15:13;;;;;;;;;;;20.00;99.90;;;;;;5008599;28;20923;-77
2022/06/21 08:18:05;;;;;;;;;;;19.90;99.90;;;;;;5013769;28;19940;-78
2022/06/21 08:20:43;;;;;;;;;;;20.40;99.90;;;;;;5015884;28;19929;-78
2022/06/21 08:23:41;;;;;;;;;;;20.70;99.90;;;;;;5020258;28;19979;-78
2022/06/21 08:26:09;;;;;;;;;;;20.60;99.90;;;;;;4997884;28;19929;-78
2022/06/21 08:28:35;;;;;;;;;;;20.40;99.90;;;;;;5020529;28;20103;-78
2022/06/21 08:31:06;;;;;;;;;;;20.80;99.90;;;;;;5022769;28;19944;-78
2022/06/21 08:33:39;;;;;;;;;;;20.70;99.90;;;;;;5006762;28;20413;-78
2022/06/21 08:36:11;;;;;;;;;;;20.60;99.90;;;;;;5009337;28;19979;-77
2022/06/21 08:38:40;;;;;;;;;;;21.00;99.90;;;;;;5024680;28;19929;-77
2022/06/21 08:44:33;;;;;;;;;;;21.70;99.90;;;;;;4997862;28;20562;-78
2022/06/21 08:47:18;;;;;;;;;;;21.70;99.90;;;;;;5015524;28;19928;-79
2022/06/21 08:50:09;;;;;;;;;;;21.40;99.90;;;;;;5014517;28;20024;-78
2022/06/21 08:52:45;;;;;;;;;;;21.70;99.90;;;;;;4985425;28;20620;-78
2022/06/21 08:55:10;;;;;;;;;;;20.80;99.90;;;;;;5022123;28;20365;-78
2022/06/21 08:57:44;;;;;;;;;;;21.00;99.90;;;;;;5024487;28;19929;-78
2022/06/21 09:00:25;;;;;;;;;;;19.90;99.90;;;;;;5019677;28;20051;-79
2022/06/21 09:03:08;;;;;;;;;;;20.20;99.90;;;;;;5025945;28;19936;-77
2022/06/21 09:05:35;;;;;;;;;;;20.90;99.90;;;;;;4986920;28;19932;-77
2022/06/21 09:08:19;;;;;;;;;;;21.50;99.90;;;;;;5026080;28;19983;-78
2022/06/21 09:10:44;;;;;;;;;;;21.60;99.90;;;;;;5027418;28;20482;-79
2022/06/21 09:13:16;;;;;;;;;;;21.70;99.90;;;;;;5014513;28;19929;-78
2022/06/21 09:16:02;;;;;;;;;;;21.10;99.90;;;;;;5015699;28;19936;-78
2022/06/21 09:18:37;;;;;;;;;;;22.20;99.90;;;;;;5016661;28;20003;-78
2022/06/21 09:21:21;;;;;;;;;;;22.40;99.90;;;;;;5019610;28;19944;-78
2022/06/21 09:23:47;;;;;;;;;;;22.80;99.90;;;;;;5027621;28;19939;-78
2022/06/21 09:26:25;;;;;;;;;;;23.00;99.90;;;;;;5002691;28;19929;-78
2022/06/21 09:28:52;;;;;;;;;;;23.10;99.90;;;;;;5018639;28;19928;-77
2022/06/21 09:31:38;;;;;;;;;;;23.10;99.90;;;;;;4988583;28;19936;-77
2022/06/21 09:34:04;;;;;;;;;;;23.00;99.90;;;;;;5006220;28;19960;-79
2022/06/21 09:36:29;;;;;;;;;;;22.20;99.90;;;;;;5024471;28;20291;-79
2022/06/21 09:39:08;;;;;;;;;;;22.60;99.90;;;;;;5009074;28;19929;-79
2022/06/21 09:41:48;;;;;;;;;;;22.30;99.90;;;;;;5025388;28;19933;-78
2022/06/21 09:44:19;;;;;;;;;;;21.30;99.90;;;;;;5026374;28;20305;-79
2022/06/21 09:46:57;;;;;;;;;;;21.90;99.90;;;;;;5008081;28;19928;-78
2022/06/21 09:49:29;;;;;;;;;;;21.70;99.90;;;;;;5025514;28;20723;-78
2022/06/21 09:51:54;;;;;;;;;;;22.40;99.90;;;;;;5011354;28;19986;-78
2022/06/21 09:54:32;;;;;;;;;;;22.30;99.90;;;;;;5007057;28;19932;-78
2022/06/21 09:57:09;;;;;;;;;;;21.90;99.90;;;;;;5007794;28;19929;-78
2022/06/21 09:59:46;;;;;;;;;;;21.00;99.90;;;;;;5006139;28;19929;-78
2022/06/21 10:02:18;;;;;;;;;;;20.40;99.90;;;;;;5003437;28;19994;-78
2022/06/21 10:04:52;;;;;;;;;;;20.30;99.90;;;;;;5012530;28;19963;-78
2022/06/21 10:07:37;;;;;;;;;;;20.90;99.90;;;;;;5019935;28;19936;-77
2022/06/21 10:10:15;;;;;;;;;;;21.80;99.90;;;;;;5012866;28;19928;-77
2022/06/21 10:12:52;;;;;;;;;;;22.60;99.90;;;;;;5013534;28;19929;-79
2022/06/21 10:15:21;;;;;;;;;;;23.20;99.90;;;;;;5023771;28;19929;-78
2022/06/21 10:18:05;;;;;;;;;;;23.30;99.90;;;;;;5010845;28;19929;-79
2022/06/21 10:20:42;;;;;;;;;;;23.60;99.90;;;;;;4993064;28;20027;-77
2022/06/21 10:23:27;;;;;;;;;;;23.60;99.90;;;;;;5013948;28;20351;-80
2022/06/21 10:26:08;;;;;;;;;;;23.40;99.90;;;;;;5012483;28;19928;-78
2022/06/21 10:28:43;;;;;;;;;;;23.30;99.90;;;;;;5011428;28;20035;-78
2022/06/21 10:31:15;;;;;;;;;;;23.10;99.90;;;;;;5016480;28;19924;-77
2022/06/21 10:33:59;;;;;;;;;;;23.30;99.90;;;;;;5028055;28;20420;-79
2022/06/21 10:36:43;;;;;;;;;;;23.80;99.90;;;;;;5011537;28;19924;-79
2022/06/21 10:39:32;;;;;;;;;;;22.50;99.90;;;;;;5009832;28;20705;-78
2022/06/21 10:45:09;;;;;;;;;;;23.90;99.90;;;;;;5013046;28;19939;-79
2022/06/21 10:47:45;;;;;;;;;;;23.90;99.90;;;;;;5025593;28;19925;-80
2022/06/21 10:50:16;;;;;;;;;;;24.00;99.90;;;;;;5010778;28;20685;-79
2022/06/21 10:52:47;;;;;;;;;;;24.10;99.90;;;;;;5010921;28;19928;-79
2022/06/21 10:55:25;;;;;;;;;;;24.10;99.90;;;;;;5011254;28;20378;-79
2022/06/21 10:58:09;;;;;;;;;;;23.80;98.40;;;;;;5026513;28;19935;-79
2022/06/21 11:03:41;;;;;;;;;;;23.20;98.60;;;;;;5009956;28;19975;-78
2022/06/21 11:06:09;;;;;;;;;;;23.80;99.90;;;;;;5026681;28;19932;-78
2022/06/21 11:08:47;;;;;;;;;;;24.40;98.60;;;;;;5007485;28;21598;-79
2022/06/21 11:11:19;;;;;;;;;;;24.80;99.20;;;;;;5031290;28;19929;-79
2022/06/21 11:13:53;;;;;;;;;;;24.90;98.30;;;;;;5008242;28;20488;-80
2022/06/21 11:16:19;;;;;;;;;;;24.80;96.90;;;;;;5028325;28;19959;-79
2022/06/21 11:18:48;;;;;;;;;;;24.20;92.80;;;;;;5009892;28;20564;-78
2022/06/21 11:21:19;;;;;;;;;;;25.00;95.60;;;;;;5012010;28;19928;-80
2022/06/21 11:23:52;;;;;;;;;;;25.50;94.30;;;;;;5015617;28;19932;-79
2022/06/21 11:26:35;;;;;;;;;;;25.60;94.10;;;;;;5011504;28;19933;-80
2022/06/21 11:29:20;;;;;;;;;;;25.70;92.10;;;;;;5010044;28;19925;-82
2022/06/21 11:32:04;;;;;;;;;;;25.10;91.00;;;;;;5025317;28;19947;-79
2022/06/21 11:34:32;;;;;;;;;;;25.10;88.80;;;;;;4984150;28;19967;-79
2022/06/21 11:37:08;;;;;;;;;;;24.80;83.40;;;;;;5028866;28;20910;-79
2022/06/21 11:39:52;;;;;;;;;;;24.80;89.30;;;;;;5010729;28;20688;-79
2022/06/21 11:42:31;;;;;;;;;;;25.00;90.00;;;;;;5024433;28;19940;-79
2022/06/21 11:45:14;;;;;;;;;;;25.10;91.80;;;;;;5012732;28;19928;-79
2022/06/21 11:47:49;;;;;;;;;;;25.50;91.00;;;;;;5027722;28;20020;-79
2022/06/21 11:50:19;;;;;;;;;;;25.70;93.20;;;;;;5009702;28;20491;-80
2022/06/21 11:52:44;;;;;;;;;;;24.60;87.90;;;;;;5008538;28;20505;-79
2022/06/21 11:55:13;;;;;;;;;;;25.20;91.30;;;;;;5010508;28;19929;-78
2022/06/21 11:57:41;;;;;;;;;;;25.40;93.00;;;;;;5010689;28;20189;-79
2022/06/21 12:00:15;;;;;;;;;;;25.40;91.60;;;;;;5008955;28;19932;-79
2022/06/21 12:02:44;;;;;;;;;;;25.60;92.10;;;;;;5007511;28;19928;-78
2022/06/21 12:05:28;;;;;;;;;;;25.20;90.70;;;;;;5009164;28;19929;-79
2022/06/21 12:07:54;;;;;;;;;;;24.60;93.40;;;;;;5008841;28;19968;-79
2022/06/21 12:10:23;;;;;;;;;;;23.60;94.80;;;;;;5008995;28;20011;-78
2022/06/21 12:13:08;;;;;;;;;;;24.10;95.10;;;;;;4988845;28;20017;-79
2022/06/21 12:15:53;;;;;;;;;;;24.10;93.60;;;;;;5025953;28;19984;-78
2022/06/21 12:18:23;;;;;;;;;;;22.60;93.40;;;;;;5024555;28;20366;-78
2022/06/21 12:20:49;;;;;;;;;;;22.50;93.30;;;;;;5009753;28;19936;-78
2022/06/21 12:23:21;;;;;;;;;;;22.70;95.30;;;;;;5023830;28;19929;-78
2022/06/21 12:25:46;;;;;;;;;;;23.10;95.20;;;;;;5008361;28;20006;-77
2022/06/21 12:28:18;;;;;;;;;;;23.40;96.10;;;;;;5006989;28;20070;-78
2022/06/21 12:30:44;;;;;;;;;;;23.20;94.80;;;;;;4996280;28;19960;-77
2022/06/21 12:33:11;;;;;;;;;;;22.80;92.20;;;;;;4997114;28;19929;-78
2022/06/21 12:35:46;;;;;;;;;;;22.90;95.40;;;;;;5008958;28;19936;-78
2022/06/21 12:38:13;;;;;;;;;;;23.00;93.70;;;;;;5007876;28;19929;-79
2022/06/21 12:40:48;;;;;;;;;;;23.10;93.70;;;;;;5009784;28;19935;-78
2022/06/21 12:43:23;;;;;;;;;;;23.20;94.00;;;;;;5010635;28;19986;-78
2022/06/21 12:45:53;;;;;;;;;;;23.00;92.60;;;;;;5029199;28;19982;-79
2022/06/21 12:48:34;;;;;;;;;;;23.10;94.10;;;;;;5008948;28;19929;-78
2022/06/21 12:51:00;;;;;;;;;;;23.20;90.80;;;;;;5024899;28;19940;-79
2022/06/21 12:53:40;;;;;;;;;;;22.90;93.40;;;;;;5008278;28;20317;-80
2022/06/21 12:56:24;;;;;;;;;;;22.90;96.40;;;;;;5024916;28;19976;-78
2022/06/21 12:59:09;;;;;;;;;;;23.60;92.70;;;;;;5011367;28;19928;-77
2022/06/21 13:01:40;;;;;;;;;;;24.40;89.80;;;;;;5023055;28;19929;-78
2022/06/21 13:04:35;;;;;;;;;;;25.10;93.00;;;;;;5009081;28;19940;-77
2022/06/21 13:07:20;;;;;;;;;;;25.10;93.40;;;;;;4952664;28;20019;-79
2022/06/21 13:09:55;;;;;;;;;;;25.40;93.50;;;;;;5010076;28;20484;-79
2022/06/21 13:12:24;;;;;;;;;;;25.00;92.70;;;;;;5025936;28;19975;-79
2022/06/21 13:14:52;;;;;;;;;;;24.20;90.90;;;;;;5010315;28;19936;-78
2022/06/21 13:17:36;;;;;;;;;;;23.50;93.10;;;;;;5008471;28;20673;-79
2022/06/21 13:20:21;;;;;;;;;;;23.00;90.70;;;;;;5009855;28;20048;-78
2022/06/21 13:23:08;;;;;;;;;;;22.90;90.30;;;;;;5009378;28;19952;-78
2022/06/21 13:25:48;;;;;;;;;;;22.60;88.70;;;;;;5008240;28;19963;-78
2022/06/21 13:28:22;;;;;;;;;;;22.70;91.30;;;;;;5007414;28;19933;-78
2022/06/21 13:30:48;;;;;;;;;;;22.60;92.30;;;;;;5006491;28;19929;-78
2022/06/21 13:33:28;;;;;;;;;;;23.20;92.60;;;;;;5014519;28;19940;-77
2022/06/21 13:35:56;;;;;;;;;;;23.60;94.60;;;;;;5026372;28;19929;-78
2022/06/21 13:38:28;;;;;;;;;;;24.00;92.40;;;;;;5015067;28;19929;-78
2022/06/21 13:41:11;;;;;;;;;;;24.00;95.10;;;;;;5005810;28;19965;-78
2022/06/21 13:43:57;;;;;;;;;;;24.30;87.90;;;;;;5011286;28;19933;-78
2022/06/21 13:46:26;;;;;;;;;;;23.80;88.90;;;;;;5011169;28;19929;-78
2022/06/21 13:48:55;;;;;;;;;;;24.10;90.80;;;;;;5004397;28;19983;-78
2022/06/21 13:51:30;;;;;;;;;;;24.80;94.70;;;;;;5001775;28;20515;-78
2022/06/21 13:53:58;;;;;;;;;;;24.30;91.30;;;;;;4995608;28;20381;-77
2022/06/21 13:56:30;;;;;;;;;;;25.40;92.90;;;;;;5008845;28;20613;-78
2022/06/21 13:58:59;;;;;;;;;;;26.10;93.50;;;;;;4979315;28;20030;-79
2022/06/21 14:01:35;;;;;;;;;;;25.00;92.00;;;;;;4998634;28;19968;-79
2022/06/21 14:04:34;;;;;;;;;;;25.00;91.80;;;;;;4995063;28;19935;-79
2022/06/21 14:07:13;;;;;;;;;;;25.40;91.00;;;;;;4983161;28;20743;-77
2022/06/21 14:09:47;;;;;;;;;;;25.80;92.60;;;;;;4991144;28;19933;-78
2022/06/21 14:12:16;;;;;;;;;;;26.50;92.40;;;;;;5015492;28;20412;-79
2022/06/21 14:14:45;;;;;;;;;;;26.80;91.90;;;;;;4973094;28;20019;-78
2022/06/21 14:17:18;;;;;;;;;;;26.50;91.30;;;;;;5014015;28;19939;-77
2022/06/21 14:19:43;;;;;;;;;;;26.50;90.00;;;;;;4995063;28;19932;-78
2022/06/21 14:22:28;;;;;;;;;;;26.90;91.10;;;;;;5012163;28;20310;-78
2022/06/21 14:24:57;;;;;;;;;;;26.80;90.70;;;;;;5015299;28;19932;-79
2022/06/21 14:27:23;;;;;;;;;;;27.30;91.00;;;;;;4997922;28;19940;-78
2022/06/21 14:29:58;;;;;;;;;;;27.50;91.50;;;;;;4997572;28;19928;-79
2022/06/21 14:32:44;;;;;;;;;;;27.30;89.70;;;;;;4996376;28;20417;-78
2022/06/21 14:35:11;;;;;;;;;;;27.10;88.20;;;;;;4993211;28;20646;-77
2022/06/21 14:37:51;;;;;;;;;;;26.70;87.60;;;;;;4994467;28;19929;-78
2022/06/21 14:40:24;;;;;;;;;;;26.40;88.20;;;;;;4994466;28;20498;-78
2022/06/21 14:42:54;;;;;;;;;;;26.70;89.20;;;;;;4993404;28;19929;-79
2022/06/21 14:45:23;;;;;;;;;;;26.70;82.10;;;;;;4994937;28;20297;-78
2022/06/21 14:47:54;;;;;;;;;;;26.50;82.50;;;;;;4990348;28;19929;-78
2022/06/21 14:50:20;;;;;;;;;;;26.00;89.50;;;;;;4989676;28;20002;-78
2022/06/21 14:53:05;;;;;;;;;;;25.40;89.50;;;;;;4994654;28;19929;-79
2022/06/21 14:55:43;;;;;;;;;;;25.40;90.50;;;;;;4999288;28;19929;-78
2022/06/21 14:58:15;;;;;;;;;;;25.60;89.80;;;;;;5010093;28;21339;-79
2022/06/21 15:00:54;;;;;;;;;;;25.00;86.90;;;;;;4997095;28;20471;-78
2022/06/21 15:03:30;;;;;;;;;;;24.40;87.70;;;;;;4992368;28;20051;-79
2022/06/21 15:06:15;;;;;;;;;;;24.10;88.70;;;;;;4984647;28;20731;-78
2022/06/21 15:08:48;;;;;;;;;;;23.80;88.80;;;;;;5003995;28;19932;-78
2022/06/21 15:11:18;;;;;;;;;;;23.30;92.90;;;;;;5002639;28;19932;-79
2022/06/21 15:13:54;;;;;;;;;;;23.30;90.50;;;;;;4988127;28;19925;-79